sensor_id;sensor_type;location;lat;lon;timestamp;pressure;altitude;pressure_sealevel;temperature;humidity
76095;BME280;64821;13.710;100.604;2023-05-10T00:00:28;100938.03;;;35.07;48.13
76095;BME280;64821;13.710;100.604;2023-05-10T00:01:31;100936.63;;;35.01;48.21
76095;BME280;64821;13.710;100.604;2023-05-10T00:02:37;100927.16;;;34.90;48.25
76095;BME280;64821;13.710;100.604;2023-05-10T00:03:41;100936.84;;;34.96;48.85
76095;BME280;64821;13.710;100.604;2023-05-10T00:04:44;100924.56;;;34.94;48.58
76095;BME280;64821;13.710;100.604;2023-05-10T00:05:48;100938.03;;;35.07;48.09
76095;BME280;64821;13.710;100.604;2023-05-10T00:06:52;100926.91;;;35.04;48.18
76095;BME280;64821;13.710;100.604;2023-05-10T00:07:55;100937.53;;;35.14;47.99
76095;BME280;64821;13.710;100.604;2023-05-10T00:08:59;100941.53;;;35.16;47.92
76095;BME280;64821;13.710;100.604;2023-05-10T00:10:03;100924.28;;;35.07;47.91
76095;BME280;64821;13.710;100.604;2023-05-10T00:11:07;100935.09;;;35.12;47.66
76095;BME280;64821;13.710;100.604;2023-05-10T00:12:11;100943.09;;;35.05;48.17
76095;BME280;64821;13.710;100.604;2023-05-10T00:13:14;100949.53;;;35.09;47.99
76095;BME280;64821;13.710;100.604;2023-05-10T00:14:18;100927.78;;;34.96;47.73
76095;BME280;64821;13.710;100.604;2023-05-10T00:15:22;100919.84;;;34.94;47.87
76095;BME280;64821;13.710;100.604;2023-05-10T00:16:26;100934.28;;;35.12;47.75
76095;BME280;64821;13.710;100.604;2023-05-10T00:17:30;100933.47;;;35.11;47.61
76095;BME280;64821;13.710;100.604;2023-05-10T00:18:35;100936.84;;;35.17;47.87
76095;BME280;64821;13.710;100.604;2023-05-10T00:19:39;100934.28;;;35.12;47.82
76095;BME280;64821;13.710;100.604;2023-05-10T00:20:42;100933.63;;;35.15;47.68
76095;BME280;64821;13.710;100.604;2023-05-10T00:21:46;100936.16;;;35.20;47.87
76095;BME280;64821;13.710;100.604;2023-05-10T00:22:50;100931.47;;;35.20;47.31
76095;BME280;64821;13.710;100.604;2023-05-10T00:23:53;100928.72;;;35.20;47.82
76095;BME280;64821;13.710;100.604;2023-05-10T00:24:57;100924.63;;;35.27;47.48
76095;BME280;64821;13.710;100.604;2023-05-10T00:26:01;100925.00;;;35.25;47.59
76095;BME280;64821;13.710;100.604;2023-05-10T00:27:05;100913.22;;;35.16;47.20
76095;BME280;64821;13.710;100.604;2023-05-10T00:28:09;100926.13;;;35.24;47.69
76095;BME280;64821;13.710;100.604;2023-05-10T00:29:12;100925.63;;;35.22;47.85
76095;BME280;64821;13.710;100.604;2023-05-10T00:30:16;100918.59;;;35.12;47.52
76095;BME280;64821;13.710;100.604;2023-05-10T00:31:20;100931.53;;;35.12;47.67
76095;BME280;64821;13.710;100.604;2023-05-10T00:32:24;100929.84;;;35.19;47.28
76095;BME280;64821;13.710;100.604;2023-05-10T00:33:28;100928.38;;;35.22;47.44
76095;BME280;64821;13.710;100.604;2023-05-10T00:34:33;100930.00;;;35.23;47.22
76095;BME280;64821;13.710;100.604;2023-05-10T00:35:37;100929.81;;;35.28;47.35
76095;BME280;64821;13.710;100.604;2023-05-10T00:36:41;100930.75;;;35.32;47.48
76095;BME280;64821;13.710;100.604;2023-05-10T00:37:44;100933.69;;;35.27;47.55
76095;BME280;64821;13.710;100.604;2023-05-10T00:38:48;100942.78;;;35.28;47.57
76095;BME280;64821;13.710;100.604;2023-05-10T00:39:52;100945.41;;;35.24;47.83
76095;BME280;64821;13.710;100.604;2023-05-10T00:40:56;100945.41;;;35.24;47.33
76095;BME280;64821;13.710;100.604;2023-05-10T00:41:59;100945.25;;;35.20;47.13
76095;BME280;64821;13.710;100.604;2023-05-10T00:43:03;100935.69;;;35.18;47.70
76095;BME280;64821;13.710;100.604;2023-05-10T00:44:07;100951.38;;;35.26;47.17
76095;BME280;64821;13.710;100.604;2023-05-10T00:45:11;100951.38;;;35.26;47.00
76095;BME280;64821;13.710;100.604;2023-05-10T00:46:15;100951.50;;;35.30;46.76
76095;BME280;64821;13.710;100.604;2023-05-10T00:47:19;100955.06;;;35.30;47.38
76095;BME280;64821;13.710;100.604;2023-05-10T00:48:23;100945.97;;;35.09;46.66
76095;BME280;64821;13.710;100.604;2023-05-10T00:49:27;100955.13;;;35.21;46.63
76095;BME280;64821;13.710;100.604;2023-05-10T00:50:33;100959.66;;;35.17;46.88
76095;BME280;64821;13.710;100.604;2023-05-10T00:51:38;100961.75;;;35.20;47.43
76095;BME280;64821;13.710;100.604;2023-05-10T00:52:42;100972.63;;;35.26;47.13
76095;BME280;64821;13.710;100.604;2023-05-10T00:53:46;100963.38;;;35.21;46.89
76095;BME280;64821;13.710;100.604;2023-05-10T00:54:51;100977.63;;;35.23;46.55
76095;BME280;64821;13.710;100.604;2023-05-10T00:55:55;100976.00;;;35.22;46.80
76095;BME280;64821;13.710;100.604;2023-05-10T00:56:59;100983.28;;;35.27;46.24
76095;BME280;64821;13.710;100.604;2023-05-10T00:58:02;100977.78;;;35.27;46.68
76095;BME280;64821;13.710;100.604;2023-05-10T00:59:07;100994.72;;;35.38;46.71
76095;BME280;64821;13.710;100.604;2023-05-10T01:00:12;101001.03;;;35.38;46.77
76095;BME280;64821;13.710;100.604;2023-05-10T01:01:17;100996.13;;;35.44;46.53
76095;BME280;64821;13.710;100.604;2023-05-10T01:02:21;101005.66;;;35.46;46.53
76095;BME280;64821;13.710;100.604;2023-05-10T01:03:25;101016.34;;;35.48;46.03
76095;BME280;64821;13.710;100.604;2023-05-10T01:04:29;101008.56;;;35.50;46.57
76095;BME280;64821;13.710;100.604;2023-05-10T01:05:35;101013.66;;;35.39;45.97
76095;BME280;64821;13.710;100.604;2023-05-10T01:06:38;101005.53;;;35.43;46.04
76095;BME280;64821;13.710;100.604;2023-05-10T01:07:42;101012.78;;;35.47;46.08
76095;BME280;64821;13.710;100.604;2023-05-10T01:08:47;101001.97;;;35.42;46.04
76095;BME280;64821;13.710;100.604;2023-05-10T01:09:50;101011.97;;;35.47;46.42
76095;BME280;64821;13.710;100.604;2023-05-10T01:10:54;101014.88;;;35.50;46.49
76095;BME280;64821;13.710;100.604;2023-05-10T01:11:59;100999.88;;;35.39;45.93
76095;BME280;64821;13.710;100.604;2023-05-10T01:13:03;101018.59;;;35.54;46.41
76095;BME280;64821;13.710;100.604;2023-05-10T01:14:07;101028.78;;;35.54;45.91
76095;BME280;64821;13.710;100.604;2023-05-10T01:15:13;101020.53;;;35.54;46.13
76095;BME280;64821;13.710;100.604;2023-05-10T01:16:17;101036.25;;;35.53;45.72
76095;BME280;64821;13.710;100.604;2023-05-10T01:17:22;101026.56;;;35.47;46.13
76095;BME280;64821;13.710;100.604;2023-05-10T01:18:27;101045.09;;;35.59;46.12
76095;BME280;64821;13.710;100.604;2023-05-10T01:19:31;101039.28;;;35.60;46.15
76095;BME280;64821;13.710;100.604;2023-05-10T01:20:43;101049.47;;;35.60;45.90
76095;BME280;64821;13.710;100.604;2023-05-10T01:21:56;101048.34;;;35.61;45.57
76095;BME280;64821;13.710;100.604;2023-05-10T01:23:31;101033.34;;;35.50;45.93
76095;BME280;64821;13.710;100.604;2023-05-10T01:24:56;101057.28;;;35.58;45.78
76095;BME280;64821;13.710;100.604;2023-05-10T01:28:33;101059.28;;;35.49;46.01
76095;BME280;64821;13.710;100.604;2023-05-10T01:31:34;101067.22;;;35.50;45.85
76095;BME280;64821;13.710;100.604;2023-05-10T01:32:48;101084.25;;;35.52;45.73
76095;BME280;64821;13.710;100.604;2023-05-10T01:34:00;101085.38;;;35.51;45.55
76095;BME280;64821;13.710;100.604;2023-05-10T01:35:08;101076.97;;;35.48;45.98
76095;BME280;64821;13.710;100.604;2023-05-10T01:36:20;101057.66;;;35.27;45.63
76095;BME280;64821;13.710;100.604;2023-05-10T01:37:35;101087.84;;;35.44;46.05
76095;BME280;64821;13.710;100.604;2023-05-10T01:38:44;101096.31;;;35.39;45.79
76095;BME280;64821;13.710;100.604;2023-05-10T01:39:54;101100.53;;;35.37;45.81
76095;BME280;64821;13.710;100.604;2023-05-10T01:41:08;101094.69;;;35.38;46.24
76095;BME280;64821;13.710;100.604;2023-05-10T01:42:19;101087.63;;;35.29;45.75
76095;BME280;64821;13.710;100.604;2023-05-10T01:43:28;101096.69;;;35.29;46.62
76095;BME280;64821;13.710;100.604;2023-05-10T01:44:37;101096.69;;;35.29;46.51
76095;BME280;64821;13.710;100.604;2023-05-10T01:45:50;101104.63;;;35.31;46.51
76095;BME280;64821;13.710;100.604;2023-05-10T01:47:03;101098.78;;;35.32;46.19
76095;BME280;64821;13.710;100.604;2023-05-10T01:48:10;101097.97;;;35.32;47.53
76095;BME280;64821;13.710;100.604;2023-05-10T01:49:25;101107.84;;;35.33;46.70
76095;BME280;64821;13.710;100.604;2023-05-10T01:50:30;101107.84;;;35.33;47.50
76095;BME280;64821;13.710;100.604;2023-05-10T01:51:40;101115.31;;;35.32;48.20
76095;BME280;64821;13.710;100.604;2023-05-10T01:52:49;101116.28;;;35.28;47.50
76095;BME280;64821;13.710;100.604;2023-05-10T01:53:59;101114.50;;;35.32;48.53
76095;BME280;64821;13.710;100.604;2023-05-10T01:55:08;101125.06;;;35.21;48.97
76095;BME280;64821;13.710;100.604;2023-05-10T01:56:13;101119.41;;;35.17;49.47
76095;BME280;64821;13.710;100.604;2023-05-10T01:57:19;101124.09;;;35.17;48.10
76095;BME280;64821;13.710;100.604;2023-05-10T01:58:27;101121.69;;;35.15;48.09
76095;BME280;64821;13.710;100.604;2023-05-10T01:59:34;101115.41;;;35.06;50.40
76095;BME280;64821;13.710;100.604;2023-05-10T02:00:42;101127.53;;;35.14;48.64
76095;BME280;64821;13.710;100.604;2023-05-10T02:01:47;101122.34;;;35.12;49.88
76095;BME280;64821;13.710;100.604;2023-05-10T02:02:52;101130.13;;;35.10;50.60
76095;BME280;64821;13.710;100.604;2023-05-10T02:03:58;101122.63;;;34.73;49.87
76095;BME280;64821;13.710;100.604;2023-05-10T02:05:05;101123.28;;;34.70;50.34
76095;BME280;64821;13.710;100.604;2023-05-10T02:06:11;101125.38;;;34.73;50.53
76095;BME280;64821;13.710;100.604;2023-05-10T02:07:17;101133.34;;;34.74;50.20
76095;BME280;64821;13.710;100.604;2023-05-10T02:08:21;101134.97;;;34.75;50.31
76095;BME280;64821;13.710;100.604;2023-05-10T02:09:26;101142.59;;;34.52;50.56
76095;BME280;64821;13.710;100.604;2023-05-10T02:10:31;101131.06;;;34.59;50.09
76095;BME280;64821;13.710;100.604;2023-05-10T02:11:37;101126.06;;;34.61;49.89
76095;BME280;64821;13.710;100.604;2023-05-10T02:12:43;101124.13;;;34.62;50.44
76095;BME280;64821;13.710;100.604;2023-05-10T02:13:48;101125.41;;;34.64;50.29
76095;BME280;64821;13.710;100.604;2023-05-10T02:14:53;101120.41;;;34.66;50.03
76095;BME280;64821;13.710;100.604;2023-05-10T02:15:57;101115.69;;;34.67;49.35
76095;BME280;64821;13.710;100.604;2023-05-10T02:17:02;101111.34;;;34.66;49.79
76095;BME280;64821;13.710;100.604;2023-05-10T02:18:08;101121.34;;;34.70;49.79
76095;BME280;64821;13.710;100.604;2023-05-10T02:19:14;101116.97;;;34.69;49.78
76095;BME280;64821;13.710;100.604;2023-05-10T02:20:19;101114.38;;;34.73;50.27
76095;BME280;64821;13.710;100.604;2023-05-10T02:21:24;101110.00;;;34.72;49.98
76095;BME280;64821;13.710;100.604;2023-05-10T02:22:29;101098.19;;;34.71;50.47
76095;BME280;64821;13.710;100.604;2023-05-10T02:23:34;101095.91;;;34.73;50.04
76095;BME280;64821;13.710;100.604;2023-05-10T02:24:38;101088.00;;;34.72;50.33
76095;BME280;64821;13.710;100.604;2023-05-10T02:25:43;101092.69;;;34.71;50.28
76095;BME280;64821;13.710;100.604;2023-05-10T02:26:49;101078.44;;;34.69;51.11
76095;BME280;64821;13.710;100.604;2023-05-10T02:27:56;101077.31;;;34.70;50.43
76095;BME280;64821;13.710;100.604;2023-05-10T02:29:02;101063.75;;;34.65;50.69
76095;BME280;64821;13.710;100.604;2023-05-10T02:30:07;101057.44;;;34.65;50.35
76095;BME280;64821;13.710;100.604;2023-05-10T02:31:12;101066.16;;;34.67;49.50
76095;BME280;64821;13.710;100.604;2023-05-10T02:32:16;101054.34;;;34.58;50.52
76095;BME280;64821;13.710;100.604;2023-05-10T02:33:21;101037.75;;;34.45;49.31
76095;BME280;64821;13.710;100.604;2023-05-10T02:34:28;101059.22;;;34.61;48.86
76095;BME280;64821;13.710;100.604;2023-05-10T02:35:34;101063.91;;;34.60;49.37
76095;BME280;64821;13.710;100.604;2023-05-10T02:36:38;101066.34;;;34.62;49.20
76095;BME280;64821;13.710;100.604;2023-05-10T02:37:44;101063.09;;;34.60;49.82
76095;BME280;64821;13.710;100.604;2023-05-10T02:38:49;101054.34;;;34.58;49.33
76095;BME280;64821;13.710;100.604;2023-05-10T02:39:55;101055.81;;;34.64;50.00
76095;BME280;64821;13.710;100.604;2023-05-10T02:41:00;101055.81;;;34.64;49.87
76095;BME280;64821;13.710;100.604;2023-05-10T02:42:05;101052.41;;;34.67;49.19
76095;BME280;64821;13.710;100.604;2023-05-10T02:43:12;101052.06;;;34.68;50.15
76095;BME280;64821;13.710;100.604;2023-05-10T02:44:19;101054.81;;;34.68;49.98
76095;BME280;64821;13.710;100.604;2023-05-10T02:45:27;101054.97;;;34.72;50.25
76095;BME280;64821;13.710;100.604;2023-05-10T02:46:32;101054.63;;;34.73;49.65
76095;BME280;64821;13.710;100.604;2023-05-10T02:47:36;101046.91;;;34.75;49.70
76095;BME280;64821;13.710;100.604;2023-05-10T02:48:40;101049.47;;;34.72;49.37
76095;BME280;64821;13.710;100.604;2023-05-10T02:49:45;101048.97;;;34.70;49.17
76095;BME280;64821;13.710;100.604;2023-05-10T02:50:51;101036.59;;;34.55;49.03
76095;BME280;64821;13.710;100.604;2023-05-10T02:52:00;101056.75;;;34.68;49.07
76095;BME280;64821;13.710;100.604;2023-05-10T02:53:10;101048.50;;;34.68;49.45
76095;BME280;64821;13.710;100.604;2023-05-10T02:54:19;101050.78;;;34.74;48.56
76095;BME280;64821;13.710;100.604;2023-05-10T02:55:32;101049.66;;;34.75;48.92
76095;BME280;64821;13.710;100.604;2023-05-10T02:56:42;101049.66;;;34.75;48.46
76095;BME280;64821;13.710;100.604;2023-05-10T02:57:52;101031.03;;;34.64;48.48
76095;BME280;64821;13.710;100.604;2023-05-10T02:58:59;101055.16;;;34.75;49.15
76095;BME280;64821;13.710;100.604;2023-05-10T03:00:03;101060.78;;;34.79;48.35
76095;BME280;64821;13.710;100.604;2023-05-10T03:01:07;101060.13;;;34.82;49.38
76095;BME280;64821;13.710;100.604;2023-05-10T03:02:12;101061.28;;;34.81;48.67
76095;BME280;64821;13.710;100.604;2023-05-10T03:03:16;101057.88;;;34.84;48.75
76095;BME280;64821;13.710;100.604;2023-05-10T03:04:19;101040.72;;;34.70;48.29
76095;BME280;64821;13.710;100.604;2023-05-10T03:05:25;101053.97;;;34.85;48.52
76095;BME280;64821;13.710;100.604;2023-05-10T03:06:29;101059.47;;;34.85;48.47
76095;BME280;64821;13.710;100.604;2023-05-10T03:07:33;101060.09;;;34.91;48.72
76095;BME280;64821;13.710;100.604;2023-05-10T03:08:37;101035.69;;;34.72;48.44
76095;BME280;64821;13.710;100.604;2023-05-10T03:09:41;101057.66;;;34.89;48.42
76095;BME280;64821;13.710;100.604;2023-05-10T03:10:54;101064.63;;;34.95;48.26
76095;BME280;64821;13.710;100.604;2023-05-10T03:12:02;101058.44;;;34.98;48.63
76095;BME280;64821;13.710;100.604;2023-05-10T03:13:13;101059.25;;;34.99;47.91
76095;BME280;64821;13.710;100.604;2023-05-10T03:14:33;101052.94;;;34.98;48.32
76095;BME280;64821;13.710;100.604;2023-05-10T03:15:58;101030.66;;;34.82;48.13
76095;BME280;64821;13.710;100.604;2023-05-10T03:17:08;101049.72;;;34.96;48.67
76095;BME280;64821;13.710;100.604;2023-05-10T03:18:17;101056.97;;;35.01;48.13
76095;BME280;64821;13.710;100.604;2023-05-10T03:19:26;101057.13;;;35.04;48.74
76095;BME280;64821;13.710;100.604;2023-05-10T03:20:38;101059.66;;;35.09;48.84
76095;BME280;64821;13.710;100.604;2023-05-10T03:21:49;101051.88;;;35.11;47.75
76095;BME280;64821;13.710;100.604;2023-05-10T03:22:57;101056.75;;;35.14;48.18
76095;BME280;64821;13.710;100.604;2023-05-10T03:24:07;101064.47;;;35.21;48.58
76095;BME280;64821;13.710;100.604;2023-05-10T03:25:11;101059.78;;;35.21;48.51
76095;BME280;64821;13.710;100.604;2023-05-10T03:26:18;101058.34;;;35.24;48.35
76095;BME280;64821;13.710;100.604;2023-05-10T03:27:25;101059.59;;;35.27;47.65
76095;BME280;64821;13.710;100.604;2023-05-10T03:28:30;101060.06;;;35.29;48.00
76095;BME280;64821;13.710;100.604;2023-05-10T03:29:35;101062.03;;;35.28;48.47
76095;BME280;64821;13.710;100.604;2023-05-10T03:30:39;101055.03;;;35.31;48.01
76095;BME280;64821;13.710;100.604;2023-05-10T03:31:44;101058.59;;;35.31;48.29
76095;BME280;64821;13.710;100.604;2023-05-10T03:32:48;101052.75;;;35.33;48.51
76095;BME280;64821;13.710;100.604;2023-05-10T03:33:52;101058.75;;;35.35;48.15
76095;BME280;64821;13.710;100.604;2023-05-10T03:34:56;101046.94;;;35.34;48.30
76095;BME280;64821;13.710;100.604;2023-05-10T03:36:01;101055.19;;;35.34;48.30
76095;BME280;64821;13.710;100.604;2023-05-10T03:37:05;101047.25;;;35.33;47.89
76095;BME280;64821;13.710;100.604;2023-05-10T03:38:08;101030.63;;;35.20;47.77
76095;BME280;64821;13.710;100.604;2023-05-10T03:39:12;101058.41;;;35.36;47.78
76095;BME280;64821;13.710;100.604;2023-05-10T03:40:16;101062.78;;;35.37;47.98
76095;BME280;64821;13.710;100.604;2023-05-10T03:41:20;101061.97;;;35.37;47.88
76095;BME280;64821;13.710;100.604;2023-05-10T03:42:24;101060.00;;;35.37;47.72
76095;BME280;64821;13.710;100.604;2023-05-10T03:43:27;101060.00;;;35.37;47.87
76095;BME280;64821;13.710;100.604;2023-05-10T03:44:31;101061.97;;;35.37;48.29
76095;BME280;64821;13.710;100.604;2023-05-10T03:45:35;101061.63;;;35.38;48.66
76095;BME280;64821;13.710;100.604;2023-05-10T03:46:39;101058.53;;;35.40;48.81
76095;BME280;64821;13.710;100.604;2023-05-10T03:47:43;101061.78;;;35.42;48.44
76095;BME280;64821;13.710;100.604;2023-05-10T03:48:46;101051.56;;;35.42;48.07
76095;BME280;64821;13.710;100.604;2023-05-10T03:49:50;101059.84;;;35.42;48.42
76095;BME280;64821;13.710;100.604;2023-05-10T03:50:54;101056.28;;;35.42;48.23
76095;BME280;64821;13.710;100.604;2023-05-10T03:51:59;101055.78;;;35.40;47.56
76095;BME280;64821;13.710;100.604;2023-05-10T03:53:03;101064.69;;;35.45;47.21
76095;BME280;64821;13.710;100.604;2023-05-10T03:54:07;101066.63;;;35.45;47.39
76095;BME280;64821;13.710;100.604;2023-05-10T03:55:11;101062.69;;;35.46;47.66
76095;BME280;64821;13.710;100.604;2023-05-10T03:56:14;101058.38;;;35.45;47.83
76095;BME280;64821;13.710;100.604;2023-05-10T03:57:18;101061.56;;;35.47;47.58
76095;BME280;64821;13.710;100.604;2023-05-10T03:58:22;101063.50;;;35.46;48.05
76095;BME280;64821;13.710;100.604;2023-05-10T03:59:25;101062.38;;;35.47;47.69
76095;BME280;64821;13.710;100.604;2023-05-10T04:00:29;101061.56;;;35.47;47.22
76095;BME280;64821;13.710;100.604;2023-05-10T04:01:33;101063.50;;;35.46;47.79
76095;BME280;64821;13.710;100.604;2023-05-10T04:02:37;101062.03;;;35.49;47.70
76095;BME280;64821;13.710;100.604;2023-05-10T04:03:41;101068.38;;;35.49;47.01
76095;BME280;64821;13.710;100.604;2023-05-10T04:04:45;101064.00;;;35.48;46.89
76095;BME280;64821;13.710;100.604;2023-05-10T04:05:49;101052.38;;;35.43;47.03
76095;BME280;64821;13.710;100.604;2023-05-10T04:07:03;101058.47;;;35.48;48.17
76095;BME280;64821;13.710;100.604;2023-05-10T04:08:07;101058.47;;;35.48;47.81
76095;BME280;64821;13.710;100.604;2023-05-10T04:09:10;101027.66;;;35.34;47.30
76095;BME280;64821;13.710;100.604;2023-05-10T04:10:14;101055.88;;;35.52;47.07
76095;BME280;64821;13.710;100.604;2023-05-10T04:11:19;101055.88;;;35.52;47.07
76095;BME280;64821;13.710;100.604;2023-05-10T04:12:22;101022.00;;;35.31;46.52
76095;BME280;64821;13.710;100.604;2023-05-10T04:13:26;101044.91;;;35.43;46.47
76095;BME280;64821;13.710;100.604;2023-05-10T04:14:30;101052.88;;;35.36;47.02
76095;BME280;64821;13.710;100.604;2023-05-10T04:15:34;101053.38;;;35.38;47.05
76095;BME280;64821;13.710;100.604;2023-05-10T04:16:37;101044.19;;;35.34;46.67
76095;BME280;64821;13.710;100.604;2023-05-10T04:17:41;101050.75;;;35.42;46.86
76095;BME280;64821;13.710;100.604;2023-05-10T04:18:45;101046.06;;;35.42;47.06
76095;BME280;64821;13.710;100.604;2023-05-10T04:19:49;101036.84;;;35.38;46.59
76095;BME280;64821;13.710;100.604;2023-05-10T04:20:52;101042.16;;;35.43;46.36
76095;BME280;64821;13.710;100.604;2023-05-10T04:21:56;101031.81;;;35.40;46.74
76095;BME280;64821;13.710;100.604;2023-05-10T04:23:02;101040.66;;;35.46;46.77
76095;BME280;64821;13.710;100.604;2023-05-10T04:24:06;101035.38;;;35.41;47.16
76095;BME280;64821;13.710;100.604;2023-05-10T04:25:09;101032.88;;;35.48;47.05
76095;BME280;64821;13.710;100.604;2023-05-10T04:26:13;101036.09;;;35.50;47.27
76095;BME280;64821;13.710;100.604;2023-05-10T04:27:17;101033.34;;;35.50;46.59
76095;BME280;64821;13.710;100.604;2023-05-10T04:28:21;101026.38;;;35.52;46.84
76095;BME280;64821;13.710;100.604;2023-05-10T04:29:25;101028.00;;;35.53;46.66
76095;BME280;64821;13.710;100.604;2023-05-10T04:30:28;101024.09;;;35.54;47.17
76095;BME280;64821;13.710;100.604;2023-05-10T04:31:32;101024.44;;;35.53;46.98
76095;BME280;64821;13.710;100.604;2023-05-10T04:32:36;101019.25;;;35.51;46.50
76095;BME280;64821;13.710;100.604;2023-05-10T04:33:40;101015.81;;;35.54;47.26
76095;BME280;64821;13.710;100.604;2023-05-10T04:34:43;101015.88;;;35.46;47.04
76095;BME280;64821;13.710;100.604;2023-05-10T04:35:47;101009.38;;;35.50;47.12
76095;BME280;64821;13.710;100.604;2023-05-10T04:36:51;101009.03;;;35.52;47.85
76095;BME280;64821;13.710;100.604;2023-05-10T04:37:54;101011.13;;;35.55;47.91
76095;BME280;64821;13.710;100.604;2023-05-10T04:39:00;101014.53;;;35.52;47.19
76095;BME280;64821;13.710;100.604;2023-05-10T04:40:05;100991.75;;;35.43;46.96
76095;BME280;64821;13.710;100.604;2023-05-10T04:41:09;101014.78;;;35.59;47.53
76095;BME280;64821;13.710;100.604;2023-05-10T04:42:13;101005.72;;;35.58;46.98
76095;BME280;64821;13.710;100.604;2023-05-10T04:43:17;101007.94;;;35.65;48.34
76095;BME280;64821;13.710;100.604;2023-05-10T04:44:21;101017.16;;;35.69;47.14
76095;BME280;64821;13.710;100.604;2023-05-10T04:45:24;101012.09;;;35.71;47.09
76095;BME280;64821;13.710;100.604;2023-05-10T04:46:28;101006.28;;;35.73;46.84
76095;BME280;64821;13.710;100.604;2023-05-10T04:47:32;101013.88;;;35.76;47.25
76095;BME280;64821;13.710;100.604;2023-05-10T04:48:35;101002.50;;;35.77;48.06
76095;BME280;64821;13.710;100.604;2023-05-10T04:49:39;101016.75;;;35.79;47.79
76095;BME280;64821;13.710;100.604;2023-05-10T04:50:43;101008.97;;;35.81;47.83
76095;BME280;64821;13.710;100.604;2023-05-10T04:51:47;101009.78;;;35.82;47.22
76095;BME280;64821;13.710;100.604;2023-05-10T04:52:50;101010.59;;;35.82;46.78
76095;BME280;64821;13.710;100.604;2023-05-10T04:53:55;101010.66;;;35.74;47.92
76095;BME280;64821;13.710;100.604;2023-05-10T04:55:09;101009.31;;;35.80;47.08
76095;BME280;64821;13.710;100.604;2023-05-10T04:56:13;100984.41;;;35.68;47.36
76095;BME280;64821;13.710;100.604;2023-05-10T04:57:17;101009.06;;;35.85;47.24
76095;BME280;64821;13.710;100.604;2023-05-10T04:58:20;100988.72;;;35.77;47.15
76095;BME280;64821;13.710;100.604;2023-05-10T04:59:24;101004.50;;;35.89;46.51
76095;BME280;64821;13.710;100.604;2023-05-10T05:00:28;101002.91;;;35.88;46.69
76095;BME280;64821;13.710;100.604;2023-05-10T05:01:32;100998.03;;;35.85;47.27
76095;BME280;64821;13.710;100.604;2023-05-10T05:02:36;100997.53;;;35.91;47.37
76095;BME280;64821;13.710;100.604;2023-05-10T05:03:40;100987.81;;;35.85;47.14
76095;BME280;64821;13.710;100.604;2023-05-10T05:04:44;100994.75;;;35.91;46.77
76095;BME280;64821;13.710;100.604;2023-05-10T05:05:47;100974.84;;;35.86;47.08
76095;BME280;64821;13.710;100.604;2023-05-10T05:06:51;100986.72;;;35.98;47.17
76095;BME280;64821;13.710;100.604;2023-05-10T05:07:55;100989.28;;;36.04;46.76
76095;BME280;64821;13.710;100.604;2023-05-10T05:08:59;100964.44;;;35.91;47.01
76095;BME280;64821;13.710;100.604;2023-05-10T05:10:03;100975.28;;;36.09;47.04
76095;BME280;64821;13.710;100.604;2023-05-10T05:11:08;100971.84;;;36.12;47.21
76095;BME280;64821;13.710;100.604;2023-05-10T05:12:12;100942.94;;;35.97;46.52
76095;BME280;64821;13.710;100.604;2023-05-10T05:13:16;100970.13;;;36.19;46.34
76095;BME280;64821;13.710;100.604;2023-05-10T05:14:20;100961.19;;;36.22;46.03
76095;BME280;64821;13.710;100.604;2023-05-10T05:15:24;100959.81;;;36.28;46.21
76095;BME280;64821;13.710;100.604;2023-05-10T05:16:29;100961.66;;;36.37;46.55
76095;BME280;64821;13.710;100.604;2023-05-10T05:17:33;100958.91;;;36.37;46.50
76095;BME280;64821;13.710;100.604;2023-05-10T05:18:37;100954.19;;;36.49;45.86
76095;BME280;64821;13.710;100.604;2023-05-10T05:19:41;100934.22;;;36.52;45.98
76095;BME280;64821;13.710;100.604;2023-05-10T05:20:45;100911.88;;;36.45;46.17
76095;BME280;64821;13.710;100.604;2023-05-10T05:21:48;100938.81;;;36.73;46.15
76095;BME280;64821;13.710;100.604;2023-05-10T05:22:52;100930.16;;;36.74;45.79
76095;BME280;64821;13.710;100.604;2023-05-10T05:23:56;100930.63;;;36.76;45.33
76095;BME280;64821;13.710;100.604;2023-05-10T05:24:59;100928.00;;;36.80;45.93
76095;BME280;64821;13.710;100.604;2023-05-10T05:26:03;100926.25;;;36.87;45.81
76095;BME280;64821;13.710;100.604;2023-05-10T05:27:08;100925.66;;;36.94;45.46
76095;BME280;64821;13.710;100.604;2023-05-10T05:28:12;100910.59;;;36.91;45.27
76095;BME280;64821;13.710;100.604;2023-05-10T05:29:16;100920.22;;;37.10;45.23
76095;BME280;64821;13.710;100.604;2023-05-10T05:30:19;100919.16;;;37.14;44.77
76095;BME280;64821;13.710;100.604;2023-05-10T05:31:23;100914.78;;;37.13;45.30
76095;BME280;64821;13.710;100.604;2023-05-10T05:32:27;100909.41;;;37.17;44.75
76095;BME280;64821;13.710;100.604;2023-05-10T05:33:31;100896.25;;;37.14;44.79
76095;BME280;64821;13.710;100.604;2023-05-10T05:34:34;100888.22;;;37.21;44.73
76095;BME280;64821;13.710;100.604;2023-05-10T05:35:38;100894.06;;;37.31;44.69
76095;BME280;64821;13.710;100.604;2023-05-10T05:36:42;100890.84;;;37.29;45.13
76095;BME280;64821;13.710;100.604;2023-05-10T05:37:45;100889.06;;;37.37;44.82